Time;durP1;ratioP1;P1;durP2;ratioP2;P2;SDS_P1;SDS_P2;PMS_P1;PMS_P2;Temp;Humidity;BMP_temperature;BMP_pressure;BME280_temperature;BME280_humidity;BME280_pressure;Samples;Min_cycle;Max_cycle;Signal;HPM_P1;HPM_P2
2022/06/07 00:02:04;;;;;;;15.50;9.02;;;25.90;1.00;;;;;;5003486;28;20026;-49
2022/06/07 00:04:30;;;;;;;17.23;9.40;;;25.80;1.00;;;;;;5005790;28;20439;-46
2022/06/07 00:06:56;;;;;;;17.48;9.35;;;25.80;1.00;;;;;;5008220;28;20052;-46
2022/06/07 00:09:21;;;;;;;17.42;9.15;;;25.90;1.00;;;;;;5010585;28;20069;-49
2022/06/07 00:11:47;;;;;;;14.00;8.90;;;25.70;1.00;;;;;;5001566;28;20178;-49
2022/06/07 00:14:13;;;;;;;16.80;9.88;;;25.80;1.00;;;;;;5012215;28;20048;-48
2022/06/07 00:16:38;;;;;;;11.77;9.07;;;25.90;1.00;;;;;;5010552;28;20494;-50
2022/06/07 00:19:04;;;;;;;16.77;9.55;;;25.90;1.00;;;;;;5011429;28;20120;-50
2022/06/07 00:21:30;;;;;;;13.98;8.63;;;25.70;1.00;;;;;;5011370;28;20054;-47
2022/06/07 00:23:57;;;;;;;15.18;9.55;;;25.80;1.00;;;;;;5009774;28;20088;-45
2022/06/07 00:26:22;;;;;;;13.80;9.30;;;25.90;1.00;;;;;;5010564;28;20104;-46
2022/06/07 00:28:48;;;;;;;15.30;9.38;;;25.60;1.00;;;;;;5007903;28;20109;-46
2022/06/07 00:31:15;;;;;;;18.50;10.35;;;25.60;1.00;;;;;;5006834;28;20057;-46
2022/06/07 00:33:41;;;;;;;14.48;9.82;;;25.70;1.00;;;;;;5010395;28;20411;-51
2022/06/07 00:36:08;;;;;;;13.35;9.48;;;25.80;1.00;;;;;;5005135;28;20025;-45
2022/06/07 00:38:34;;;;;;;16.42;9.27;;;25.90;1.00;;;;;;5007882;28;20027;-47
2022/06/07 00:41:00;;;;;;;13.98;10.15;;;25.70;1.00;;;;;;5010847;28;20091;-48
2022/06/07 00:43:26;;;;;;;13.00;9.77;;;25.80;1.00;;;;;;5010487;28;20471;-51
2022/06/07 00:45:57;;;;;;;16.40;9.65;;;25.80;1.00;;;;;;5006808;28;20026;-51
2022/06/07 00:48:23;;;;;;;15.93;9.43;;;25.90;1.00;;;;;;5003090;28;20030;-49
2022/06/07 00:51:01;;;;;;;20.80;11.05;;;25.90;1.00;;;;;;5011551;28;20056;-47
2022/06/07 00:53:35;;;;;;;15.43;9.73;;;25.90;1.00;;;;;;5009932;28;20034;-46
2022/06/07 00:56:01;;;;;;;13.93;9.80;;;25.90;1.00;;;;;;5012580;28;20187;-47
2022/06/07 00:58:29;;;;;;;13.43;9.93;;;25.80;1.00;;;;;;5010774;28;20428;-47
2022/06/07 01:00:57;;;;;;;14.13;10.40;;;25.70;1.00;;;;;;5005774;28;20026;-48
2022/06/07 01:03:23;;;;;;;14.95;10.02;;;25.60;1.00;;;;;;5009020;28;20038;-48
2022/06/07 01:05:50;;;;;;;15.93;10.95;;;25.50;1.00;;;;;;5009285;28;20519;-49
2022/06/07 01:11:01;;;;;;;16.08;10.77;;;25.60;1.00;;;;;;5006737;28;20076;-51
2022/06/07 01:13:32;;;;;;;17.23;10.10;;;25.40;1.00;;;;;;5002078;28;20420;-49
2022/06/07 01:16:07;;;;;;;15.45;9.98;;;25.40;1.00;;;;;;5016812;28;20022;-48
2022/06/07 01:18:32;;;;;;;17.90;10.95;;;25.40;1.00;;;;;;5015443;28;20506;-46
2022/06/07 01:21:16;;;;;;;19.23;9.63;;;25.30;1.00;;;;;;5013342;28;20031;-49
2022/06/07 01:23:43;;;;;;;16.38;10.25;;;25.30;1.00;;;;;;5018846;28;20411;-45
2022/06/07 01:26:12;;;;;;;14.38;9.93;;;25.40;1.00;;;;;;5014230;28;20030;-53
2022/06/07 01:28:38;;;;;;;18.63;10.27;;;25.20;1.00;;;;;;5008587;28;20030;-46
2022/06/07 01:31:04;;;;;;;15.35;9.63;;;25.00;1.00;;;;;;5015705;28;20014;-46
2022/06/07 01:33:30;;;;;;;18.17;10.25;;;25.10;1.00;;;;;;5005809;28;20487;-47
2022/06/07 01:36:16;;;;;;;18.67;9.93;;;25.20;1.00;;;;;;5014425;28;20072;-46
2022/06/07 01:38:44;;;;;;;18.20;9.52;;;25.30;1.00;;;;;;5008810;28;20029;-46
2022/06/07 01:43:55;;;;;;;15.35;9.63;;;25.50;1.00;;;;;;5012730;28;20399;-46
2022/06/07 01:46:21;;;;;;;16.85;10.57;;;25.40;1.00;;;;;;5014057;28;20038;-49
2022/06/07 01:48:48;;;;;;;18.88;10.23;;;25.40;1.00;;;;;;5010102;28;20037;-49
2022/06/07 01:51:15;;;;;;;18.83;10.35;;;25.30;1.00;;;;;;5013154;28;20391;-48
2022/06/07 01:53:42;;;;;;;13.82;10.20;;;25.20;1.00;;;;;;5013476;28;20037;-46
2022/06/07 01:56:14;;;;;;;15.73;9.63;;;25.30;1.00;;;;;;5012821;28;20030;-47
2022/06/07 01:58:42;;;;;;;19.23;9.98;;;25.30;1.00;;;;;;5013548;28;20026;-51
2022/06/07 02:01:08;;;;;;;16.67;9.73;;;25.30;1.00;;;;;;5008716;28;20029;-45
2022/06/07 02:03:34;;;;;;;15.05;10.07;;;25.30;1.00;;;;;;5013617;28;20030;-46
2022/06/07 02:06:02;;;;;;;13.55;9.63;;;25.50;1.00;;;;;;5012465;28;20026;-49
2022/06/07 02:08:28;;;;;;;16.10;9.10;;;25.60;1.00;;;;;;5012595;28;20037;-46
2022/06/07 02:10:55;;;;;;;15.75;9.20;;;25.60;1.00;;;;;;5011166;28;20032;-46
2022/06/07 02:13:22;;;;;;;12.70;8.55;;;25.60;1.00;;;;;;5023889;28;20472;-45
2022/06/07 02:15:48;;;;;;;12.23;8.95;;;25.60;1.00;;;;;;5013513;28;20037;-49
2022/06/07 02:18:14;;;;;;;21.48;10.52;;;25.70;1.00;;;;;;5008211;28;20034;-46
2022/06/07 02:20:41;;;;;;;17.73;10.38;;;25.60;1.00;;;;;;5013244;28;20080;-47
2022/06/07 02:23:08;;;;;;;13.85;9.05;;;25.60;1.00;;;;;;5010569;28;20062;-47
2022/06/07 02:25:41;;;;;;;10.82;8.93;;;25.70;1.00;;;;;;5013439;28;20018;-47
2022/06/07 02:28:08;;;;;;;13.93;8.65;;;25.80;1.00;;;;;;5012812;28;20034;-46
2022/06/07 02:30:34;;;;;;;17.95;9.30;;;25.80;1.00;;;;;;5015104;28;20030;-52
2022/06/07 02:33:00;;;;;;;14.23;9.38;;;25.90;1.00;;;;;;5014216;28;20030;-47
2022/06/07 02:35:26;;;;;;;14.55;9.63;;;25.80;1.00;;;;;;5011066;28;20395;-50
2022/06/07 02:37:52;;;;;;;14.65;9.55;;;25.50;1.00;;;;;;5012724;28;20101;-47
2022/06/07 02:40:18;;;;;;;15.02;10.30;;;25.60;1.00;;;;;;5014518;28;20022;-47
2022/06/07 02:42:44;;;;;;;16.65;9.45;;;25.70;1.00;;;;;;5011035;28;20026;-49
2022/06/07 02:45:11;;;;;;;16.25;8.68;;;25.50;1.00;;;;;;5014906;28;20025;-50
2022/06/07 02:47:37;;;;;;;15.85;8.45;;;25.60;1.00;;;;;;5011671;28;20049;-47
2022/06/07 02:50:03;;;;;;;12.05;6.95;;;25.70;1.00;;;;;;5013306;28;20472;-45
2022/06/07 02:52:29;;;;;;;7.60;5.45;;;25.60;1.00;;;;;;5011908;28;20544;-51
2022/06/07 02:54:54;;;;;;;7.18;4.82;;;25.70;1.00;;;;;;5007985;28;20061;-50
2022/06/07 02:57:20;;;;;;;5.47;4.05;;;25.60;1.00;;;;;;5014328;28;20163;-50
2022/06/07 02:59:45;;;;;;;3.58;3.28;;;25.50;1.00;;;;;;5012666;28;20033;-45
2022/06/07 03:02:11;;;;;;;5.18;3.28;;;25.60;1.00;;;;;;5007479;28;20081;-45
2022/06/07 03:04:37;;;;;;;6.03;3.83;;;25.60;1.00;;;;;;5010736;28;20022;-47
2022/06/07 03:07:04;;;;;;;6.57;3.28;;;25.60;1.00;;;;;;5008051;28;20135;-49
2022/06/07 03:09:30;;;;;;;4.40;2.90;;;25.50;1.00;;;;;;5013476;28;20370;-46
2022/06/07 03:11:56;;;;;;;3.25;2.53;;;25.50;1.00;;;;;;5011451;28;20030;-46
2022/06/07 03:14:21;;;;;;;5.25;3.03;;;25.60;1.00;;;;;;5011046;28;20045;-45
2022/06/07 03:16:47;;;;;;;4.38;2.45;;;25.60;1.00;;;;;;5013267;28;20033;-50
2022/06/07 03:19:13;;;;;;;5.35;2.58;;;25.50;1.00;;;;;;5006711;28;20033;-50
2022/06/07 03:21:39;;;;;;;4.72;2.50;;;25.50;1.00;;;;;;5012497;28;20443;-48
2022/06/07 03:24:06;;;;;;;5.57;2.55;;;25.50;1.00;;;;;;5005559;28;20168;-53
2022/06/07 03:26:32;;;;;;;4.35;2.10;;;25.50;1.00;;;;;;5010086;28;20509;-50
2022/06/07 03:28:58;;;;;;;3.80;2.63;;;25.60;1.00;;;;;;5013166;28;20034;-50
2022/06/07 03:31:24;;;;;;;3.40;2.53;;;25.30;1.00;;;;;;5011952;28;20030;-52
2022/06/07 03:33:49;;;;;;;4.55;2.80;;;25.30;1.00;;;;;;5009881;28;20104;-45
2022/06/07 03:36:20;;;;;;;2.58;1.88;;;25.30;1.00;;;;;;5005459;28;20445;-52
2022/06/07 03:38:47;;;;;;;2.88;2.00;;;25.20;1.00;;;;;;5010809;28;20026;-48
2022/06/07 03:41:20;;;;;;;2.50;2.22;;;25.20;1.00;;;;;;5011839;28;20026;-48
2022/06/07 03:43:46;;;;;;;3.97;2.47;;;25.30;1.00;;;;;;5001119;28;20864;-47
2022/06/07 03:46:15;;;;;;;3.28;2.33;;;25.30;1.00;;;;;;5006256;28;20030;-46
2022/06/07 03:48:42;;;;;;;2.80;2.13;;;25.20;1.00;;;;;;5009319;28;20042;-47
2022/06/07 03:51:08;;;;;;;4.13;2.63;;;25.20;1.00;;;;;;5011837;28;20021;-45
2022/06/07 03:53:35;;;;;;;3.70;1.88;;;25.20;1.00;;;;;;5011169;28;20076;-48
2022/06/07 03:56:00;;;;;;;7.10;2.45;;;25.20;1.00;;;;;;5009942;28;20060;-49
2022/06/07 03:58:26;;;;;;;2.78;2.58;;;25.30;1.00;;;;;;5011055;28;20069;-50
2022/06/07 04:11:17;;;;;;;5.85;2.40;;;25.20;1.00;;;;;;4996182;28;20104;-47
2022/06/07 04:13:43;;;;;;;3.53;2.35;;;25.20;1.00;;;;;;5006551;28;20029;-45
2022/06/07 04:16:12;;;;;;;7.13;2.20;;;25.10;1.00;;;;;;5009217;28;20514;-46
2022/06/07 04:18:38;;;;;;;3.15;2.22;;;25.10;1.00;;;;;;5009441;28;20038;-49
2022/06/07 04:21:05;;;;;;;3.45;2.42;;;25.00;1.00;;;;;;4993893;28;20036;-46
2022/06/07 04:23:32;;;;;;;4.35;2.38;;;25.10;1.00;;;;;;4999929;28;20491;-46
2022/06/07 04:26:04;;;;;;;4.25;2.60;;;25.00;1.00;;;;;;5010535;28;20041;-45
2022/06/07 04:28:30;;;;;;;4.90;2.38;;;24.90;1.00;;;;;;5009158;28;20034;-47
2022/06/07 04:30:55;;;;;;;4.05;2.88;;;24.80;1.00;;;;;;5012590;28;20032;-47
2022/06/07 04:33:21;;;;;;;2.88;2.10;;;24.70;1.00;;;;;;5000487;28;20496;-48
2022/06/07 04:35:47;;;;;;;4.72;2.92;;;24.80;1.00;;;;;;5010281;28;20021;-50
2022/06/07 04:38:13;;;;;;;3.35;2.63;;;24.60;1.00;;;;;;5009283;28;20411;-47
2022/06/07 04:40:40;;;;;;;3.42;2.35;;;24.60;1.00;;;;;;5012281;28;20432;-45
2022/06/07 04:43:08;;;;;;;5.85;2.70;;;24.60;1.00;;;;;;5008235;28;20030;-48
2022/06/07 04:45:34;;;;;;;2.60;2.40;;;24.50;1.00;;;;;;5010484;28;20384;-47
2022/06/07 04:48:00;;;;;;;3.58;2.42;;;24.50;1.00;;;;;;5037250;28;20038;-51
2022/06/07 04:50:25;;;;;;;4.97;1.90;;;24.60;1.00;;;;;;5008697;28;20021;-47
2022/06/07 04:52:51;;;;;;;2.72;2.00;;;24.70;1.00;;;;;;5004860;28;20475;-46
2022/06/07 04:55:17;;;;;;;1.95;1.85;;;24.70;1.00;;;;;;5004660;28;20407;-48
2022/06/07 04:57:43;;;;;;;3.00;1.80;;;24.80;1.00;;;;;;5009090;28;20030;-50
2022/06/07 05:00:15;;;;;;;3.75;1.63;;;24.90;1.00;;;;;;5009413;28;20030;-46
2022/06/07 05:02:45;;;;;;;3.05;1.80;;;24.80;1.00;;;;;;5007586;28;20026;-50
2022/06/07 05:05:12;;;;;;;2.97;1.80;;;25.00;1.00;;;;;;5012202;28;20049;-48
2022/06/07 05:07:39;;;;;;;4.07;2.00;;;24.80;1.00;;;;;;5001724;28;20034;-48
2022/06/07 05:10:10;;;;;;;2.03;1.70;;;24.70;1.00;;;;;;5005475;28;20113;-49
2022/06/07 05:12:37;;;;;;;3.55;1.52;;;24.50;1.00;;;;;;5008584;28;20038;-51
2022/06/07 05:15:06;;;;;;;2.90;1.60;;;24.60;1.00;;;;;;5006575;28;20137;-52
2022/06/07 05:17:32;;;;;;;2.92;1.83;;;24.60;1.00;;;;;;5009308;28;20053;-48
2022/06/07 05:19:58;;;;;;;4.10;1.75;;;24.70;1.00;;;;;;5010005;28;20026;-48
2022/06/07 05:22:26;;;;;;;5.88;2.42;;;24.70;1.00;;;;;;5006773;28;20061;-46
2022/06/07 05:24:52;;;;;;;3.03;1.60;;;24.60;1.00;;;;;;5011192;28;20064;-49
2022/06/07 05:27:22;;;;;;;3.33;1.70;;;24.80;1.00;;;;;;5007517;28;20053;-48
2022/06/07 05:29:54;;;;;;;3.97;2.13;;;24.80;1.00;;;;;;5007467;28;20026;-47
2022/06/07 05:32:21;;;;;;;2.85;1.92;;;24.90;1.00;;;;;;5005819;28;20080;-48
2022/06/07 05:34:47;;;;;;;4.10;1.77;;;24.80;1.00;;;;;;5010413;28;20429;-51
2022/06/07 05:37:21;;;;;;;2.80;1.88;;;24.60;1.00;;;;;;5009150;28;20040;-46
2022/06/07 05:39:47;;;;;;;6.72;1.60;;;24.70;1.00;;;;;;5009572;28;20037;-48
2022/06/07 05:42:14;;;;;;;2.47;1.63;;;24.50;1.00;;;;;;5009534;28;20061;-47
2022/06/07 05:44:40;;;;;;;2.70;2.33;;;24.50;1.00;;;;;;5010857;28;20042;-48
2022/06/07 05:47:07;;;;;;;3.38;2.22;;;24.50;1.00;;;;;;5006263;28;20028;-48
2022/06/07 05:49:32;;;;;;;4.82;2.50;;;24.50;1.00;;;;;;5006966;28;20038;-49
2022/06/07 05:52:00;;;;;;;3.22;2.15;;;24.60;1.00;;;;;;5006399;28;20056;-48
2022/06/07 05:54:32;;;;;;;2.40;2.00;;;24.40;1.00;;;;;;5008611;28;20029;-51
2022/06/07 05:56:58;;;;;;;2.72;1.83;;;24.50;1.00;;;;;;5008770;28;20030;-48
2022/06/07 05:59:24;;;;;;;3.85;2.05;;;24.40;1.00;;;;;;5005086;28;20105;-49
2022/06/07 06:01:50;;;;;;;3.17;1.90;;;24.60;1.00;;;;;;5015429;28;20133;-48
2022/06/07 06:04:15;;;;;;;3.45;2.00;;;24.50;1.00;;;;;;5009618;28;20572;-47
2022/06/07 06:06:42;;;;;;;4.15;2.50;;;24.60;1.00;;;;;;5015513;28;20488;-49
2022/06/07 06:11:52;;;;;;;6.38;2.80;;;24.60;1.00;;;;;;5001774;28;20459;-50
2022/06/07 06:14:20;;;;;;;5.85;2.60;;;24.60;1.00;;;;;;5013464;28;20049;-50
2022/06/07 06:16:46;;;;;;;4.95;2.80;;;24.40;1.00;;;;;;5010095;28;20052;-50
2022/06/07 06:19:12;;;;;;;4.90;3.22;;;24.40;1.00;;;;;;5002884;28;20409;-47
2022/06/07 06:21:40;;;;;;;7.57;3.10;;;24.40;1.00;;;;;;5015139;28;20049;-47
2022/06/07 06:24:08;;;;;;;5.28;2.53;;;24.40;1.00;;;;;;5013484;28;20093;-48
2022/06/07 06:26:33;;;;;;;4.90;3.35;;;24.50;1.00;;;;;;5010864;28;20444;-47
2022/06/07 06:28:59;;;;;;;5.95;3.17;;;24.50;1.00;;;;;;5012505;28;20108;-49
2022/06/07 06:31:25;;;;;;;7.10;2.85;;;24.60;1.00;;;;;;5011777;28;20049;-49
2022/06/07 06:33:54;;;;;;;4.72;3.08;;;24.70;1.00;;;;;;5007583;28;20042;-48
2022/06/07 06:36:22;;;;;;;5.35;3.00;;;24.70;1.00;;;;;;5014612;28;20025;-48
2022/06/07 06:38:48;;;;;;;3.42;2.97;;;24.80;1.00;;;;;;5009798;28;20099;-49
2022/06/07 06:41:17;;;;;;;5.25;3.17;;;24.90;1.00;;;;;;5012983;28;20117;-53
2022/06/07 06:43:44;;;;;;;5.85;2.90;;;24.90;1.00;;;;;;5009967;28;20022;-52
2022/06/07 06:46:12;;;;;;;4.18;3.10;;;24.90;1.00;;;;;;5006685;28;20030;-49
2022/06/07 06:48:39;;;;;;;4.13;2.55;;;25.00;1.00;;;;;;5005954;28;20026;-60
2022/06/07 06:51:10;;;;;;;5.80;2.90;;;25.00;1.00;;;;;;5022486;28;20064;-51
2022/06/07 06:53:36;;;;;;;6.82;3.10;;;25.10;1.00;;;;;;5009295;28;20388;-48
2022/06/07 06:56:03;;;;;;;5.68;3.50;;;25.30;1.00;;;;;;5008127;28;20033;-49
2022/06/07 06:58:29;;;;;;;4.68;3.60;;;25.30;1.00;;;;;;5009833;28;20034;-46
2022/06/07 07:01:02;;;;;;;5.78;3.45;;;25.40;1.00;;;;;;5008638;28;20105;-53
2022/06/07 07:03:38;;;;;;;6.13;3.97;;;25.50;1.00;;;;;;5010699;28;20121;-50
2022/06/07 07:06:05;;;;;;;5.85;3.53;;;25.50;1.00;;;;;;5010307;28;20033;-52
2022/06/07 07:08:32;;;;;;;5.78;3.40;;;25.40;1.00;;;;;;5008315;28;20496;-47
2022/06/07 07:11:21;;;;;;;7.07;3.78;;;25.40;1.00;;;;;;5011387;28;20022;-46
2022/06/07 07:13:49;;;;;;;5.60;3.88;;;25.20;1.00;;;;;;5006406;28;20037;-48
2022/06/07 07:16:17;;;;;;;6.35;4.00;;;25.10;1.00;;;;;;5013218;28;20026;-48
2022/06/07 07:18:44;;;;;;;6.05;3.60;;;25.10;1.00;;;;;;5012561;28;20030;-47
2022/06/07 07:21:16;;;;;;;5.75;3.83;;;25.10;1.00;;;;;;5014508;28;20030;-50
2022/06/07 07:23:43;;;;;;;7.47;3.53;;;25.20;1.00;;;;;;5013894;28;20050;-49
2022/06/07 07:26:14;;;;;;;4.20;3.50;;;25.10;1.00;;;;;;5014504;28;20096;-49
2022/06/07 07:28:41;;;;;;;5.05;3.20;;;25.20;1.00;;;;;;5013785;28;20029;-51
2022/06/07 07:31:12;;;;;;;6.57;3.65;;;25.20;1.00;;;;;;5007991;28;20029;-49
2022/06/07 07:33:39;;;;;;;7.15;4.00;;;25.30;1.00;;;;;;5002627;28;20057;-51
2022/06/07 07:36:05;;;;;;;5.93;3.78;;;25.40;1.00;;;;;;5011977;28;20058;-49
2022/06/07 07:38:32;;;;;;;5.93;3.38;;;25.40;1.00;;;;;;5013325;28;20456;-46
2022/06/07 07:40:57;;;;;;;8.52;3.67;;;25.50;1.00;;;;;;5014168;28;20053;-49
2022/06/07 07:43:23;;;;;;;4.15;3.67;;;25.60;1.00;;;;;;5013144;28;20022;-49
2022/06/07 07:45:55;;;;;;;4.53;3.70;;;25.50;1.00;;;;;;5014158;28;20033;-49
2022/06/07 07:48:24;;;;;;;4.50;3.45;;;25.30;1.00;;;;;;5009956;28;20022;-51
2022/06/07 07:50:50;;;;;;;4.85;3.00;;;25.40;1.00;;;;;;5012951;28;20436;-50
2022/06/07 07:53:20;;;;;;;6.15;4.20;;;25.60;1.00;;;;;;5011445;28;20036;-53
2022/06/07 07:55:50;;;;;;;4.38;3.40;;;25.70;1.00;;;;;;5005766;28;20032;-48
2022/06/07 07:58:17;;;;;;;6.05;3.67;;;25.70;1.00;;;;;;5012854;28;20021;-48
2022/06/07 08:00:44;;;;;;;11.27;3.65;;;25.70;1.00;;;;;;5012703;28;20116;-47
2022/06/07 08:03:10;;;;;;;5.72;4.28;;;25.90;1.00;;;;;;5012394;28;20037;-45
2022/06/07 08:05:36;;;;;;;5.53;3.97;;;25.90;1.00;;;;;;5014109;28;20060;-46
2022/06/07 08:08:02;;;;;;;6.70;4.40;;;25.70;1.00;;;;;;5012774;28;20424;-50
2022/06/07 08:10:29;;;;;;;4.00;3.60;;;25.90;1.00;;;;;;5012541;28;20396;-53
2022/06/07 08:12:58;;;;;;;6.65;3.17;;;25.80;1.00;;;;;;5012832;28;20045;-49
2022/06/07 08:15:26;;;;;;;4.50;3.53;;;26.00;1.00;;;;;;5012478;28;20068;-48
2022/06/07 08:17:52;;;;;;;5.57;3.45;;;26.00;1.00;;;;;;5008589;28;20033;-48
2022/06/07 08:20:20;;;;;;;7.40;3.40;;;26.10;1.00;;;;;;5012302;28;20026;-48
2022/06/07 08:22:46;;;;;;;5.57;3.50;;;26.00;1.00;;;;;;5012256;28;20073;-48
2022/06/07 08:25:12;;;;;;;7.05;3.40;;;26.00;1.00;;;;;;5013489;28;20480;-48
2022/06/07 08:27:38;;;;;;;4.75;2.92;;;26.00;1.00;;;;;;5012819;28;20025;-48
2022/06/07 08:30:05;;;;;;;3.38;3.10;;;25.70;1.00;;;;;;5013551;28;20468;-46
2022/06/07 08:32:32;;;;;;;5.68;3.22;;;25.80;1.00;;;;;;5012625;28;20200;-46
2022/06/07 08:37:43;;;;;;;4.93;3.30;;;26.00;1.00;;;;;;5011701;28;20037;-49
2022/06/07 08:40:26;;;;;;;6.57;3.88;;;26.00;1.00;;;;;;5002764;28;20487;-46
2022/06/07 08:47:04;;;;;;;5.15;3.60;;;26.00;1.00;;;;;;5005615;28;20040;-48
2022/06/07 08:49:30;;;;;;;5.70;2.90;;;25.70;1.00;;;;;;5005463;28;20034;-50
2022/06/07 08:52:02;;;;;;;6.13;3.55;;;25.70;1.00;;;;;;5005355;28;20026;-50
2022/06/07 08:54:32;;;;;;;40.63;10.85;;;25.60;1.00;;;;;;5008029;28;20044;-48
2022/06/07 08:57:22;;;;;;;13.55;6.43;;;25.50;1.00;;;;;;5012418;28;20022;-50
2022/06/07 08:59:52;;;;;;;10.55;6.25;;;25.10;2.00;;;;;;5010085;28;20038;-53
2022/06/07 09:02:20;;;;;;;16.67;7.85;;;24.90;1.00;;;;;;5011250;28;20546;-48
2022/06/07 09:04:46;;;;;;;11.85;6.53;;;24.90;1.00;;;;;;5009045;28;20037;-47
2022/06/07 09:07:15;;;;;;;9.90;6.10;;;24.80;1.70;;;;;;5011804;28;20021;-49
2022/06/07 09:12:31;;;;;;;7.40;5.38;;;24.40;3.70;;;;;;5009252;28;20029;-48
2022/06/07 09:14:59;;;;;;;7.20;4.88;;;24.40;2.00;;;;;;5012620;28;20054;-51
2022/06/07 09:17:32;;;;;;;11.43;6.40;;;24.30;1.30;;;;;;4995979;28;20062;-53
2022/06/07 09:20:53;;;;;;;7.07;5.68;;;24.40;2.40;;;;;;5005856;28;20034;-51
2022/06/07 09:23:33;;;;;;;18.23;7.53;;;24.40;4.10;;;;;;4936389;29;20047;-51
2022/06/07 09:26:15;;;;;;;11.85;6.65;;;24.40;6.50;;;;;;4997031;28;20341;-49
2022/06/07 09:28:44;;;;;;;6.65;5.55;;;24.10;9.60;;;;;;5004802;28;20073;-47
2022/06/07 09:31:13;;;;;;;8.55;6.53;;;24.20;3.30;;;;;;5010060;28;20542;-48
2022/06/07 09:33:57;;;;;;;9.27;6.15;;;24.30;4.10;;;;;;5011616;28;20038;-49
2022/06/07 09:36:33;;;;;;;10.23;6.38;;;24.30;8.50;;;;;;5013933;28;20038;-48
2022/06/07 09:39:06;;;;;;;9.18;6.05;;;24.30;7.20;;;;;;5015761;28;20022;-50
2022/06/07 09:41:40;;;;;;;9.03;5.80;;;24.20;5.30;;;;;;5015389;28;20025;-49
2022/06/07 09:44:26;;;;;;;8.63;6.10;;;24.20;5.60;;;;;;5015581;28;20014;-48
2022/06/07 09:47:18;;;;;;;8.40;6.05;;;24.20;6.60;;;;;;5011949;28;20030;-51
2022/06/07 09:49:58;;;;;;;11.27;6.82;;;24.30;4.10;;;;;;5007850;28;20090;-48
2022/06/07 09:52:31;;;;;;;14.10;8.38;;;24.40;6.10;;;;;;5005232;28;20508;-50
2022/06/07 09:55:12;;;;;;;14.13;8.18;;;24.40;6.50;;;;;;5014823;28;20032;-50
2022/06/07 09:57:42;;;;;;;10.38;8.05;;;24.50;7.80;;;;;;5015534;28;20156;-48
2022/06/07 10:00:29;;;;;;;11.40;6.50;;;24.50;7.20;;;;;;5015255;28;20022;-50
2022/06/07 10:03:04;;;;;;;7.28;6.57;;;24.60;9.30;;;;;;5016368;28;20038;-48
2022/06/07 10:05:36;;;;;;;9.68;6.93;;;24.60;9.00;;;;;;5015263;28;20029;-50
2022/06/07 10:08:37;;;;;;;10.30;7.05;;;24.70;7.90;;;;;;5016292;28;20053;-49
2022/06/07 10:11:08;;;;;;;8.05;6.10;;;24.60;11.70;;;;;;5015264;28;20049;-51
2022/06/07 10:14:01;;;;;;;6.60;5.85;;;24.80;6.70;;;;;;5016155;28;20038;-49
2022/06/07 10:16:35;;;;;;;5.63;4.93;;;24.80;6.10;;;;;;5015463;28;20427;-49
2022/06/07 10:19:32;;;;;;;7.40;4.00;;;24.80;4.00;;;;;;5015590;28;20021;-48
2022/06/07 10:22:35;;;;;;;4.30;3.78;;;24.90;3.30;;;;;;5013499;28;20046;-53
2022/06/07 10:25:16;;;;;;;4.53;4.05;;;25.10;4.60;;;;;;5013916;28;20396;-54
2022/06/07 10:28:04;;;;;;;5.18;3.20;;;24.90;3.50;;;;;;5013611;28;20026;-54
2022/06/07 10:30:47;;;;;;;3.58;2.58;;;25.10;1.00;;;;;;5014765;28;20021;-52
2022/06/07 10:33:47;;;;;;;2.55;2.38;;;25.30;1.70;;;;;;5005237;28;20030;-56
2022/06/07 10:36:42;;;;;;;4.40;2.85;;;25.40;1.00;;;;;;5001316;28;20037;-51
2022/06/07 10:39:38;;;;;;;3.40;2.92;;;25.60;1.00;;;;;;5014835;28;20022;-54
2022/06/07 10:42:15;;;;;;;2.63;1.98;;;25.40;1.00;;;;;;5014759;28;20105;-54
2022/06/07 10:44:55;;;;;;;2.85;2.22;;;25.40;1.00;;;;;;5015353;28;20551;-55
2022/06/07 11:04:10;;;;;;;2.53;1.55;;;25.50;1.00;;;;;;5110809;27;20980;-48
2022/06/07 11:09:47;;;;;;;2.67;1.90;;;25.90;1.00;;;;;;5094166;28;20085;-51
2022/06/07 11:12:22;;;;;;;2.40;1.50;;;26.10;1.00;;;;;;5096986;28;20039;-50
2022/06/07 11:15:15;;;;;;;3.20;1.77;;;26.20;1.00;;;;;;5095949;28;20095;-46
2022/06/07 11:18:04;;;;;;;3.47;2.08;;;26.50;1.00;;;;;;5100249;28;20035;-48
2022/06/07 11:20:31;;;;;;;6.13;2.38;;;26.80;1.00;;;;;;5097654;28;20086;-49
2022/06/07 11:23:11;;;;;;;3.13;2.10;;;27.00;1.00;;;;;;5089847;28;20430;-48
2022/06/07 11:25:43;;;;;;;2.40;2.20;;;27.50;1.00;;;;;;5099618;28;20038;-48
2022/06/07 11:28:26;;;;;;;3.03;2.33;;;27.80;1.00;;;;;;5100484;28;20495;-51
2022/06/07 11:30:53;;;;;;;5.70;2.38;;;28.10;1.00;;;;;;5097470;28;20028;-49
2022/06/07 11:33:41;;;;;;;5.88;3.88;;;28.40;1.00;;;;;;5107913;28;20385;-48
2022/06/07 11:36:13;;;;;;;2.78;2.58;;;29.10;1.00;;;;;;5100745;28;20016;-47
2022/06/07 11:39:18;;;;;;;6.63;4.53;;;29.30;1.00;;;;;;5108796;28;20055;-51
2022/06/07 11:41:53;;;;;;;2.50;2.30;;;29.40;1.00;;;;;;5059984;28;20028;-49
2022/06/07 11:44:19;;;;;;;4.32;2.72;;;30.30;1.00;;;;;;5104110;28;20540;-49
2022/06/07 11:47:08;;;;;;;3.13;2.53;;;30.60;1.00;;;;;;5099682;28;20103;-47
2022/06/07 11:50:01;;;;;;;2.65;2.45;;;31.30;1.00;;;;;;5080699;28;20036;-48
2022/06/07 11:52:51;;;;;;;2.47;2.28;;;32.00;1.00;;;;;;5080054;28;20139;-51
2022/06/07 11:55:18;;;;;;;5.78;3.00;;;32.80;1.00;;;;;;5092420;28;20024;-47
2022/06/07 11:58:04;;;;;;;2.45;2.35;;;33.30;1.00;;;;;;5099324;28;20554;-49
2022/06/07 12:00:29;;;;;;;3.00;2.60;;;33.80;1.00;;;;;;5089218;28;20043;-47
2022/06/07 12:02:57;;;;;;;3.40;3.00;;;33.40;1.00;;;;;;5101144;28;20427;-50
2022/06/07 12:05:32;;;;;;;6.38;3.00;;;32.50;1.00;;;;;;5080530;28;20036;-50
2022/06/07 12:08:19;;;;;;;3.22;2.95;;;32.70;1.00;;;;;;5085399;28;20061;-51
2022/06/07 12:10:59;;;;;;;5.47;5.07;;;32.90;1.00;;;;;;5093852;28;20408;-51
2022/06/07 12:13:52;;;;;;;4.57;3.35;;;34.20;1.00;;;;;;5089045;28;20043;-48
2022/06/07 12:16:50;;;;;;;2.90;2.70;;;33.90;1.00;;;;;;5065622;28;20035;-55
2022/06/07 12:19:20;;;;;;;3.30;3.00;;;33.90;1.00;;;;;;5069458;28;20036;-52
2022/06/07 12:22:06;;;;;;;2.53;2.42;;;33.60;1.00;;;;;;5084561;28;20526;-50
2022/06/07 12:24:44;;;;;;;3.53;3.03;;;33.60;1.00;;;;;;5082491;28;20028;-51
2022/06/07 12:27:44;;;;;;;2.42;2.33;;;32.00;1.00;;;;;;5080227;28;20032;-50
2022/06/07 12:30:35;;;;;;;2.75;2.55;;;31.10;1.00;;;;;;5092754;28;20469;-49
2022/06/07 12:33:24;;;;;;;4.18;2.65;;;31.40;1.00;;;;;;5075092;28;20607;-51
2022/06/07 12:35:54;;;;;;;3.08;2.70;;;31.90;1.00;;;;;;5075588;28;20032;-52
2022/06/07 12:38:20;;;;;;;3.28;2.85;;;32.20;1.00;;;;;;5086301;28;20374;-50
2022/06/07 12:40:51;;;;;;;2.70;2.50;;;32.40;1.00;;;;;;5086040;28;20078;-49
2022/06/07 12:43:48;;;;;;;2.97;2.40;;;32.50;1.00;;;;;;5075048;28;20512;-49
2022/06/07 12:46:21;;;;;;;4.05;2.97;;;31.70;1.00;;;;;;5075792;28;20066;-49
2022/06/07 12:48:48;;;;;;;2.92;2.60;;;34.20;1.00;;;;;;5078529;28;20028;-48
2022/06/07 12:51:19;;;;;;;3.30;2.60;;;32.40;1.00;;;;;;5080394;28;20028;-47
2022/06/07 12:53:47;;;;;;;14.52;11.75;;;33.90;1.00;;;;;;5066790;28;20075;-46
2022/06/07 12:56:16;;;;;;;6.40;5.43;;;35.70;1.00;;;;;;5079877;28;20517;-49
2022/06/07 12:58:49;;;;;;;3.28;2.97;;;37.20;1.00;;;;;;5061483;28;20543;-49
2022/06/07 13:01:30;;;;;;;3.33;2.88;;;36.10;1.00;;;;;;5078649;28;20039;-50
2022/06/07 13:04:03;;;;;;;2.72;2.53;;;36.30;1.00;;;;;;5062975;28;20036;-50
2022/06/07 13:06:28;;;;;;;4.05;2.60;;;33.10;1.00;;;;;;5080194;28;20055;-47
2022/06/07 13:08:58;;;;;;;2.30;2.20;;;32.30;1.00;;;;;;5080075;28;20384;-50
2022/06/07 13:11:25;;;;;;;3.20;2.90;;;32.50;1.00;;;;;;5084896;28;20368;-49
2022/06/07 13:13:52;;;;;;;3.17;2.70;;;32.70;1.00;;;;;;5081779;28;20020;-48
2022/06/07 13:16:21;;;;;;;4.32;3.92;;;33.00;1.00;;;;;;5068836;28;20020;-52
2022/06/07 13:18:57;;;;;;;4.03;3.63;;;33.70;1.00;;;;;;5079696;28;20028;-48
2022/06/07 13:21:33;;;;;;;4.25;3.90;;;34.60;1.00;;;;;;5076518;28;20029;-47
2022/06/07 13:24:00;;;;;;;3.85;3.28;;;35.00;1.00;;;;;;5067788;28;20032;-51
2022/06/07 13:26:43;;;;;;;3.53;2.90;;;34.50;1.00;;;;;;5082313;28;20086;-52
2022/06/07 13:29:17;;;;;;;;;;;34.50;1.00;;;;;;5080494;28;20665;-52
2022/06/07 13:31:43;;;;;;;;;;;34.20;1.00;;;;;;5081463;28;19916;-51
2022/06/07 13:34:19;;;;;;;3.50;2.45;;;34.00;1.00;;;;;;5079975;28;19908;-53
2022/06/07 13:36:49;;;;;;;2.88;2.65;;;33.90;1.00;;;;;;5076770;28;20563;-51
2022/06/07 13:39:24;;;;;;;2.92;2.72;;;33.90;1.00;;;;;;5081348;28;20040;-52
2022/06/07 13:42:14;;;;;;;5.47;3.90;;;33.90;1.00;;;;;;5079920;28;20089;-49
2022/06/07 13:44:44;;;;;;;3.63;3.40;;;34.70;1.00;;;;;;5079054;28;20599;-46
2022/06/07 13:47:35;;;;;;;3.47;3.17;;;35.10;1.00;;;;;;5078478;28;20476;-49
2022/06/07 13:53:26;;;;;;;3.67;3.47;;;34.90;1.00;;;;;;5075591;28;20047;-48
2022/06/07 13:56:04;;;;;;;3.63;3.30;;;34.30;1.00;;;;;;5081575;28;20065;-52
2022/06/07 13:58:35;;;;;;;3.58;3.30;;;34.30;1.00;;;;;;5080141;28;20028;-51
2022/06/07 14:01:22;;;;;;;3.40;2.97;;;33.70;1.00;;;;;;5080578;28;20473;-48
2022/06/07 14:03:50;;;;;;;3.88;3.50;;;34.60;1.00;;;;;;5061484;28;20048;-47
2022/06/07 14:06:29;;;;;;;3.40;3.05;;;34.00;1.00;;;;;;5081705;28;20027;-53